sensor_id;sensor_type;location;lat;lon;timestamp;P1;durP1;ratioP1;P2;durP2;ratioP2
69588;SDS011;56792;50.644;17.984;2023-01-29T00:02:02;7.10;;;3.20;;
69588;SDS011;56792;50.644;17.984;2023-01-29T00:04:35;7.00;;;4.00;;
69588;SDS011;56792;50.644;17.984;2023-01-29T00:07:08;6.30;;;3.10;;
69588;SDS011;56792;50.644;17.984;2023-01-29T00:09:41;5.40;;;3.10;;
69588;SDS011;56792;50.644;17.984;2023-01-29T00:12:14;6.20;;;3.20;;
69588;SDS011;56792;50.644;17.984;2023-01-29T00:14:46;5.20;;;3.40;;
69588;SDS011;56792;50.644;17.984;2023-01-29T00:17:19;5.60;;;3.20;;
69588;SDS011;56792;50.644;17.984;2023-01-29T00:19:52;7.20;;;3.40;;
69588;SDS011;56792;50.644;17.984;2023-01-29T00:22:26;6.60;;;3.20;;
69588;SDS011;56792;50.644;17.984;2023-01-29T00:24:59;6.70;;;2.80;;
69588;SDS011;56792;50.644;17.984;2023-01-29T00:27:32;5.20;;;2.80;;
69588;SDS011;56792;50.644;17.984;2023-01-29T00:30:08;5.30;;;3.20;;
69588;SDS011;56792;50.644;17.984;2023-01-29T00:32:44;4.90;;;2.70;;
69588;SDS011;56792;50.644;17.984;2023-01-29T00:35:16;6.10;;;2.90;;
69588;SDS011;56792;50.644;17.984;2023-01-29T00:37:49;4.70;;;2.90;;
69588;SDS011;56792;50.644;17.984;2023-01-29T00:40:21;7.00;;;3.30;;
69588;SDS011;56792;50.644;17.984;2023-01-29T00:42:54;7.00;;;3.00;;
69588;SDS011;56792;50.644;17.984;2023-01-29T00:45:52;8.50;;;3.00;;
69588;SDS011;56792;50.644;17.984;2023-01-29T00:48:24;5.10;;;2.80;;
69588;SDS011;56792;50.644;17.984;2023-01-29T00:50:56;5.70;;;3.20;;
69588;SDS011;56792;50.644;17.984;2023-01-29T00:53:29;5.20;;;2.50;;
69588;SDS011;56792;50.644;17.984;2023-01-29T00:56:01;5.50;;;2.90;;
69588;SDS011;56792;50.644;17.984;2023-01-29T00:58:34;5.60;;;3.00;;
69588;SDS011;56792;50.644;17.984;2023-01-29T01:01:06;5.70;;;3.20;;
69588;SDS011;56792;50.644;17.984;2023-01-29T01:03:38;6.40;;;3.10;;
69588;SDS011;56792;50.644;17.984;2023-01-29T01:06:14;5.80;;;2.80;;
69588;SDS011;56792;50.644;17.984;2023-01-29T01:08:46;5.70;;;3.00;;
69588;SDS011;56792;50.644;17.984;2023-01-29T01:11:36;5.90;;;3.50;;
69588;SDS011;56792;50.644;17.984;2023-01-29T01:14:08;5.70;;;3.00;;
69588;SDS011;56792;50.644;17.984;2023-01-29T01:16:40;6.10;;;3.40;;
69588;SDS011;56792;50.644;17.984;2023-01-29T01:19:14;6.10;;;3.40;;
69588;SDS011;56792;50.644;17.984;2023-01-29T01:21:47;6.60;;;3.60;;
69588;SDS011;56792;50.644;17.984;2023-01-29T01:24:19;5.50;;;3.40;;
69588;SDS011;56792;50.644;17.984;2023-01-29T01:26:51;6.60;;;3.20;;
69588;SDS011;56792;50.644;17.984;2023-01-29T01:29:24;5.90;;;3.20;;
69588;SDS011;56792;50.644;17.984;2023-01-29T01:31:56;6.80;;;3.90;;
69588;SDS011;56792;50.644;17.984;2023-01-29T01:34:28;7.20;;;3.40;;
69588;SDS011;56792;50.644;17.984;2023-01-29T01:37:01;6.00;;;3.40;;
69588;SDS011;56792;50.644;17.984;2023-01-29T01:39:33;6.40;;;3.50;;
69588;SDS011;56792;50.644;17.984;2023-01-29T01:42:08;6.60;;;3.60;;
69588;SDS011;56792;50.644;17.984;2023-01-29T01:44:57;6.60;;;3.50;;
69588;SDS011;56792;50.644;17.984;2023-01-29T01:47:36;6.90;;;3.50;;
69588;SDS011;56792;50.644;17.984;2023-01-29T01:50:16;7.40;;;3.80;;
69588;SDS011;56792;50.644;17.984;2023-01-29T01:52:54;7.40;;;4.10;;
69588;SDS011;56792;50.644;17.984;2023-01-29T01:55:30;7.50;;;4.20;;
69588;SDS011;56792;50.644;17.984;2023-01-29T01:58:07;8.40;;;4.20;;
69588;SDS011;56792;50.644;17.984;2023-01-29T02:00:43;8.90;;;4.30;;
69588;SDS011;56792;50.644;17.984;2023-01-29T02:03:15;8.50;;;4.40;;
69588;SDS011;56792;50.644;17.984;2023-01-29T02:06:06;8.50;;;4.50;;
69588;SDS011;56792;50.644;17.984;2023-01-29T02:09:01;8.80;;;4.50;;
69588;SDS011;56792;50.644;17.984;2023-01-29T02:11:56;7.50;;;4.30;;
69588;SDS011;56792;50.644;17.984;2023-01-29T02:14:28;8.00;;;4.10;;
69588;SDS011;56792;50.644;17.984;2023-01-29T02:17:07;8.50;;;4.10;;
69588;SDS011;56792;50.644;17.984;2023-01-29T02:19:49;8.10;;;3.70;;
69588;SDS011;56792;50.644;17.984;2023-01-29T02:26:11;7.40;;;4.10;;
69588;SDS011;56792;50.644;17.984;2023-01-29T02:28:55;6.60;;;3.60;;
69588;SDS011;56792;50.644;17.984;2023-01-29T02:31:54;8.60;;;4.10;;
69588;SDS011;56792;50.644;17.984;2023-01-29T02:34:39;8.20;;;3.80;;
69588;SDS011;56792;50.644;17.984;2023-01-29T02:37:37;9.20;;;6.20;;
69588;SDS011;56792;50.644;17.984;2023-01-29T02:40:20;7.00;;;3.60;;
69588;SDS011;56792;50.644;17.984;2023-01-29T02:43:05;6.80;;;3.80;;
69588;SDS011;56792;50.644;17.984;2023-01-29T02:45:49;7.20;;;3.50;;
69588;SDS011;56792;50.644;17.984;2023-01-29T02:48:35;6.70;;;3.50;;
69588;SDS011;56792;50.644;17.984;2023-01-29T02:51:17;6.50;;;3.90;;
69588;SDS011;56792;50.644;17.984;2023-01-29T02:54:00;7.40;;;4.00;;
69588;SDS011;56792;50.644;17.984;2023-01-29T02:56:37;7.40;;;4.00;;
69588;SDS011;56792;50.644;17.984;2023-01-29T02:59:19;7.80;;;4.00;;
69588;SDS011;56792;50.644;17.984;2023-01-29T03:01:57;7.00;;;4.10;;
69588;SDS011;56792;50.644;17.984;2023-01-29T03:04:38;7.70;;;4.50;;
69588;SDS011;56792;50.644;17.984;2023-01-29T03:07:18;9.40;;;4.70;;
69588;SDS011;56792;50.644;17.984;2023-01-29T03:10:15;6.70;;;4.10;;
69588;SDS011;56792;50.644;17.984;2023-01-29T03:12:53;8.20;;;4.40;;
69588;SDS011;56792;50.644;17.984;2023-01-29T03:15:33;6.90;;;4.60;;
69588;SDS011;56792;50.644;17.984;2023-01-29T03:18:30;8.30;;;4.50;;
69588;SDS011;56792;50.644;17.984;2023-01-29T03:21:12;7.40;;;4.10;;
69588;SDS011;56792;50.644;17.984;2023-01-29T03:24:07;8.70;;;4.80;;
69588;SDS011;56792;50.644;17.984;2023-01-29T03:27:04;7.90;;;4.30;;
69588;SDS011;56792;50.644;17.984;2023-01-29T03:29:57;7.40;;;4.10;;
69588;SDS011;56792;50.644;17.984;2023-01-29T03:33:08;7.30;;;4.10;;
69588;SDS011;56792;50.644;17.984;2023-01-29T03:35:47;7.10;;;3.80;;
69588;SDS011;56792;50.644;17.984;2023-01-29T03:38:22;7.50;;;4.20;;
69588;SDS011;56792;50.644;17.984;2023-01-29T03:40:58;6.80;;;3.80;;
69588;SDS011;56792;50.644;17.984;2023-01-29T03:43:36;7.60;;;4.30;;
69588;SDS011;56792;50.644;17.984;2023-01-29T03:46:20;8.10;;;3.90;;
69588;SDS011;56792;50.644;17.984;2023-01-29T03:49:00;7.30;;;3.80;;
69588;SDS011;56792;50.644;17.984;2023-01-29T03:51:43;6.60;;;3.40;;
69588;SDS011;56792;50.644;17.984;2023-01-29T03:54:27;7.70;;;3.50;;
69588;SDS011;56792;50.644;17.984;2023-01-29T03:57:14;6.10;;;3.40;;
69588;SDS011;56792;50.644;17.984;2023-01-29T03:59:56;6.50;;;3.40;;
69588;SDS011;56792;50.644;17.984;2023-01-29T04:03:07;5.80;;;3.50;;
69588;SDS011;56792;50.644;17.984;2023-01-29T04:05:46;6.30;;;3.60;;
69588;SDS011;56792;50.644;17.984;2023-01-29T04:08:31;6.60;;;3.40;;
69588;SDS011;56792;50.644;17.984;2023-01-29T04:11:10;6.60;;;3.80;;
69588;SDS011;56792;50.644;17.984;2023-01-29T04:13:47;6.20;;;3.70;;
69588;SDS011;56792;50.644;17.984;2023-01-29T04:16:24;6.70;;;3.80;;
69588;SDS011;56792;50.644;17.984;2023-01-29T04:19:23;5.90;;;3.10;;
69588;SDS011;56792;50.644;17.984;2023-01-29T04:22:02;6.10;;;3.50;;
69588;SDS011;56792;50.644;17.984;2023-01-29T04:24:41;5.50;;;3.40;;
69588;SDS011;56792;50.644;17.984;2023-01-29T04:27:24;5.70;;;3.10;;
69588;SDS011;56792;50.644;17.984;2023-01-29T04:30:17;5.80;;;3.30;;
69588;SDS011;56792;50.644;17.984;2023-01-29T04:33:13;5.70;;;3.40;;
69588;SDS011;56792;50.644;17.984;2023-01-29T04:36:05;5.80;;;3.00;;
69588;SDS011;56792;50.644;17.984;2023-01-29T04:38:58;5.20;;;3.10;;
69588;SDS011;56792;50.644;17.984;2023-01-29T04:41:42;6.10;;;3.40;;
69588;SDS011;56792;50.644;17.984;2023-01-29T04:44:22;5.90;;;3.40;;
69588;SDS011;56792;50.644;17.984;2023-01-29T04:47:08;5.40;;;2.90;;
69588;SDS011;56792;50.644;17.984;2023-01-29T04:49:49;5.40;;;3.10;;
69588;SDS011;56792;50.644;17.984;2023-01-29T04:52:38;6.60;;;3.00;;
69588;SDS011;56792;50.644;17.984;2023-01-29T04:55:22;5.50;;;2.90;;
69588;SDS011;56792;50.644;17.984;2023-01-29T04:58:07;5.50;;;3.00;;
69588;SDS011;56792;50.644;17.984;2023-01-29T05:00:48;5.30;;;2.90;;
69588;SDS011;56792;50.644;17.984;2023-01-29T05:03:25;5.20;;;3.00;;
69588;SDS011;56792;50.644;17.984;2023-01-29T05:06:00;5.00;;;2.90;;
69588;SDS011;56792;50.644;17.984;2023-01-29T05:08:37;6.40;;;3.30;;
69588;SDS011;56792;50.644;17.984;2023-01-29T05:11:10;5.30;;;2.60;;
69588;SDS011;56792;50.644;17.984;2023-01-29T05:13:43;5.20;;;2.90;;
69588;SDS011;56792;50.644;17.984;2023-01-29T05:16:21;5.00;;;3.00;;
69588;SDS011;56792;50.644;17.984;2023-01-29T05:18:56;5.70;;;3.10;;
69588;SDS011;56792;50.644;17.984;2023-01-29T05:21:28;5.60;;;2.90;;
69588;SDS011;56792;50.644;17.984;2023-01-29T05:24:15;6.70;;;3.00;;
69588;SDS011;56792;50.644;17.984;2023-01-29T05:26:50;5.80;;;3.10;;
69588;SDS011;56792;50.644;17.984;2023-01-29T05:29:42;6.20;;;2.70;;
69588;SDS011;56792;50.644;17.984;2023-01-29T05:32:16;6.10;;;3.10;;
69588;SDS011;56792;50.644;17.984;2023-01-29T05:34:48;4.80;;;2.70;;
69588;SDS011;56792;50.644;17.984;2023-01-29T05:37:20;5.80;;;3.50;;
69588;SDS011;56792;50.644;17.984;2023-01-29T05:39:52;4.90;;;2.90;;
69588;SDS011;56792;50.644;17.984;2023-01-29T05:42:24;5.20;;;2.60;;
69588;SDS011;56792;50.644;17.984;2023-01-29T05:44:57;5.40;;;3.00;;
69588;SDS011;56792;50.644;17.984;2023-01-29T05:47:29;5.40;;;2.90;;
69588;SDS011;56792;50.644;17.984;2023-01-29T05:50:01;5.60;;;3.00;;
69588;SDS011;56792;50.644;17.984;2023-01-29T05:52:34;5.50;;;3.00;;
69588;SDS011;56792;50.644;17.984;2023-01-29T05:55:08;4.70;;;2.40;;
69588;SDS011;56792;50.644;17.984;2023-01-29T05:57:41;5.00;;;2.60;;
69588;SDS011;56792;50.644;17.984;2023-01-29T06:00:15;4.90;;;3.00;;
69588;SDS011;56792;50.644;17.984;2023-01-29T06:02:48;4.60;;;2.60;;
69588;SDS011;56792;50.644;17.984;2023-01-29T06:05:20;4.90;;;2.30;;
69588;SDS011;56792;50.644;17.984;2023-01-29T06:07:53;4.80;;;2.80;;
69588;SDS011;56792;50.644;17.984;2023-01-29T06:10:25;5.60;;;3.10;;
69588;SDS011;56792;50.644;17.984;2023-01-29T06:12:57;5.40;;;2.90;;
69588;SDS011;56792;50.644;17.984;2023-01-29T06:15:30;5.00;;;2.80;;
69588;SDS011;56792;50.644;17.984;2023-01-29T06:18:02;5.70;;;2.80;;
69588;SDS011;56792;50.644;17.984;2023-01-29T06:20:34;5.10;;;2.30;;
69588;SDS011;56792;50.644;17.984;2023-01-29T06:23:07;5.00;;;3.00;;
69588;SDS011;56792;50.644;17.984;2023-01-29T06:25:40;7.60;;;2.80;;
69588;SDS011;56792;50.644;17.984;2023-01-29T06:28:12;5.60;;;2.70;;
69588;SDS011;56792;50.644;17.984;2023-01-29T06:30:44;4.80;;;2.60;;
69588;SDS011;56792;50.644;17.984;2023-01-29T06:33:16;5.30;;;2.60;;
69588;SDS011;56792;50.644;17.984;2023-01-29T06:35:48;5.70;;;3.10;;
69588;SDS011;56792;50.644;17.984;2023-01-29T06:38:24;5.20;;;2.50;;
69588;SDS011;56792;50.644;17.984;2023-01-29T06:40:58;5.50;;;2.30;;
69588;SDS011;56792;50.644;17.984;2023-01-29T06:43:37;5.00;;;2.70;;
69588;SDS011;56792;50.644;17.984;2023-01-29T06:46:09;5.50;;;2.90;;
69588;SDS011;56792;50.644;17.984;2023-01-29T06:48:42;6.10;;;3.20;;
69588;SDS011;56792;50.644;17.984;2023-01-29T06:51:14;5.70;;;2.50;;
69588;SDS011;56792;50.644;17.984;2023-01-29T06:53:46;6.50;;;3.40;;
69588;SDS011;56792;50.644;17.984;2023-01-29T06:56:18;4.90;;;2.50;;
69588;SDS011;56792;50.644;17.984;2023-01-29T06:58:51;5.80;;;2.80;;
69588;SDS011;56792;50.644;17.984;2023-01-29T07:01:23;5.30;;;3.00;;
69588;SDS011;56792;50.644;17.984;2023-01-29T07:03:56;5.40;;;2.70;;
69588;SDS011;56792;50.644;17.984;2023-01-29T07:06:31;4.90;;;2.60;;
69588;SDS011;56792;50.644;17.984;2023-01-29T07:09:05;5.70;;;3.00;;
69588;SDS011;56792;50.644;17.984;2023-01-29T07:11:37;4.90;;;3.00;;
69588;SDS011;56792;50.644;17.984;2023-01-29T07:14:10;7.50;;;2.80;;
69588;SDS011;56792;50.644;17.984;2023-01-29T07:16:42;5.50;;;3.30;;
69588;SDS011;56792;50.644;17.984;2023-01-29T07:19:15;8.40;;;2.80;;
69588;SDS011;56792;50.644;17.984;2023-01-29T07:21:47;6.10;;;2.80;;
69588;SDS011;56792;50.644;17.984;2023-01-29T07:24:19;6.60;;;3.30;;
69588;SDS011;56792;50.644;17.984;2023-01-29T07:26:52;5.70;;;2.80;;
69588;SDS011;56792;50.644;17.984;2023-01-29T07:29:25;4.80;;;2.90;;
69588;SDS011;56792;50.644;17.984;2023-01-29T07:31:57;6.60;;;2.70;;
69588;SDS011;56792;50.644;17.984;2023-01-29T07:34:29;5.60;;;2.90;;
69588;SDS011;56792;50.644;17.984;2023-01-29T07:37:01;5.90;;;2.80;;
69588;SDS011;56792;50.644;17.984;2023-01-29T07:39:34;5.30;;;3.20;;
69588;SDS011;56792;50.644;17.984;2023-01-29T07:42:06;5.60;;;3.10;;
69588;SDS011;56792;50.644;17.984;2023-01-29T07:44:39;5.80;;;2.80;;
69588;SDS011;56792;50.644;17.984;2023-01-29T07:47:12;6.30;;;3.00;;
69588;SDS011;56792;50.644;17.984;2023-01-29T07:49:44;7.50;;;3.40;;
69588;SDS011;56792;50.644;17.984;2023-01-29T07:52:17;7.40;;;3.30;;
69588;SDS011;56792;50.644;17.984;2023-01-29T07:54:49;5.70;;;3.00;;
69588;SDS011;56792;50.644;17.984;2023-01-29T07:57:22;5.60;;;2.90;;
69588;SDS011;56792;50.644;17.984;2023-01-29T07:59:55;5.10;;;3.10;;
69588;SDS011;56792;50.644;17.984;2023-01-29T08:02:28;5.80;;;3.10;;
69588;SDS011;56792;50.644;17.984;2023-01-29T08:05:00;6.30;;;3.20;;
69588;SDS011;56792;50.644;17.984;2023-01-29T08:07:33;5.50;;;3.00;;
69588;SDS011;56792;50.644;17.984;2023-01-29T08:10:07;5.50;;;3.00;;
69588;SDS011;56792;50.644;17.984;2023-01-29T08:12:40;5.40;;;2.80;;
69588;SDS011;56792;50.644;17.984;2023-01-29T08:15:13;5.40;;;2.90;;
69588;SDS011;56792;50.644;17.984;2023-01-29T08:17:46;6.70;;;2.90;;
69588;SDS011;56792;50.644;17.984;2023-01-29T08:20:20;5.90;;;3.40;;
69588;SDS011;56792;50.644;17.984;2023-01-29T08:22:59;6.20;;;3.00;;
69588;SDS011;56792;50.644;17.984;2023-01-29T08:25:34;5.80;;;2.90;;
69588;SDS011;56792;50.644;17.984;2023-01-29T08:28:07;5.90;;;3.30;;
69588;SDS011;56792;50.644;17.984;2023-01-29T08:30:40;5.40;;;3.30;;
69588;SDS011;56792;50.644;17.984;2023-01-29T08:33:13;6.90;;;3.50;;
69588;SDS011;56792;50.644;17.984;2023-01-29T08:35:49;6.60;;;3.30;;
69588;SDS011;56792;50.644;17.984;2023-01-29T08:38:21;6.20;;;3.00;;
69588;SDS011;56792;50.644;17.984;2023-01-29T08:40:54;5.70;;;3.10;;
69588;SDS011;56792;50.644;17.984;2023-01-29T08:43:26;6.90;;;3.60;;
69588;SDS011;56792;50.644;17.984;2023-01-29T08:45:59;5.20;;;2.90;;
69588;SDS011;56792;50.644;17.984;2023-01-29T08:48:34;4.80;;;2.60;;
69588;SDS011;56792;50.644;17.984;2023-01-29T08:51:09;6.40;;;3.30;;
69588;SDS011;56792;50.644;17.984;2023-01-29T08:53:43;5.80;;;3.10;;
69588;SDS011;56792;50.644;17.984;2023-01-29T08:56:15;7.20;;;3.70;;
69588;SDS011;56792;50.644;17.984;2023-01-29T08:58:48;7.40;;;4.00;;
69588;SDS011;56792;50.644;17.984;2023-01-29T09:01:24;7.40;;;4.20;;
69588;SDS011;56792;50.644;17.984;2023-01-29T09:04:00;6.10;;;3.00;;
69588;SDS011;56792;50.644;17.984;2023-01-29T09:06:34;5.10;;;3.30;;
69588;SDS011;56792;50.644;17.984;2023-01-29T09:09:10;6.40;;;3.20;;
69588;SDS011;56792;50.644;17.984;2023-01-29T09:11:43;5.80;;;3.20;;
69588;SDS011;56792;50.644;17.984;2023-01-29T09:14:16;6.90;;;3.40;;
69588;SDS011;56792;50.644;17.984;2023-01-29T09:16:50;5.90;;;3.40;;
69588;SDS011;56792;50.644;17.984;2023-01-29T09:19:22;5.80;;;3.10;;
69588;SDS011;56792;50.644;17.984;2023-01-29T09:21:54;7.20;;;3.20;;
69588;SDS011;56792;50.644;17.984;2023-01-29T09:24:33;6.10;;;3.10;;
69588;SDS011;56792;50.644;17.984;2023-01-29T09:27:13;5.80;;;2.90;;
69588;SDS011;56792;50.644;17.984;2023-01-29T09:29:46;5.40;;;3.20;;
69588;SDS011;56792;50.644;17.984;2023-01-29T09:32:19;6.50;;;3.60;;
69588;SDS011;56792;50.644;17.984;2023-01-29T09:34:51;4.80;;;2.90;;
69588;SDS011;56792;50.644;17.984;2023-01-29T09:37:24;5.80;;;3.50;;
69588;SDS011;56792;50.644;17.984;2023-01-29T09:39:56;6.20;;;3.10;;
69588;SDS011;56792;50.644;17.984;2023-01-29T09:42:33;7.30;;;2.90;;
69588;SDS011;56792;50.644;17.984;2023-01-29T09:45:21;6.00;;;3.30;;
69588;SDS011;56792;50.644;17.984;2023-01-29T09:47:57;5.80;;;3.70;;
69588;SDS011;56792;50.644;17.984;2023-01-29T09:50:34;5.80;;;3.20;;
69588;SDS011;56792;50.644;17.984;2023-01-29T09:53:16;6.20;;;3.80;;
69588;SDS011;56792;50.644;17.984;2023-01-29T09:55:54;6.30;;;3.20;;
69588;SDS011;56792;50.644;17.984;2023-01-29T09:58:31;6.60;;;3.40;;
69588;SDS011;56792;50.644;17.984;2023-01-29T10:01:14;5.40;;;3.30;;
69588;SDS011;56792;50.644;17.984;2023-01-29T10:04:20;6.30;;;4.20;;
69588;SDS011;56792;50.644;17.984;2023-01-29T10:10:43;6.80;;;4.90;;
69588;SDS011;56792;50.644;17.984;2023-01-29T10:13:28;7.20;;;5.00;;
69588;SDS011;56792;50.644;17.984;2023-01-29T10:16:23;7.10;;;5.40;;
69588;SDS011;56792;50.644;17.984;2023-01-29T10:19:40;11.80;;;6.30;;
69588;SDS011;56792;50.644;17.984;2023-01-29T10:25:40;14.30;;;8.30;;
69588;SDS011;56792;50.644;17.984;2023-01-29T10:28:19;13.40;;;8.00;;
69588;SDS011;56792;50.644;17.984;2023-01-29T10:31:01;13.60;;;7.10;;
69588;SDS011;56792;50.644;17.984;2023-01-29T10:33:40;13.40;;;7.90;;
69588;SDS011;56792;50.644;17.984;2023-01-29T10:36:21;11.90;;;8.10;;
69588;SDS011;56792;50.644;17.984;2023-01-29T10:38:56;12.30;;;7.80;;
69588;SDS011;56792;50.644;17.984;2023-01-29T10:41:51;12.30;;;8.00;;
69588;SDS011;56792;50.644;17.984;2023-01-29T10:44:44;11.40;;;8.00;;
69588;SDS011;56792;50.644;17.984;2023-01-29T10:47:42;11.50;;;8.60;;
69588;SDS011;56792;50.644;17.984;2023-01-29T10:50:41;13.10;;;11.20;;
69588;SDS011;56792;50.644;17.984;2023-01-29T10:53:30;12.70;;;10.80;;
69588;SDS011;56792;50.644;17.984;2023-01-29T10:59:38;11.20;;;9.40;;
69588;SDS011;56792;50.644;17.984;2023-01-29T11:02:22;13.50;;;9.70;;
69588;SDS011;56792;50.644;17.984;2023-01-29T11:04:55;10.80;;;8.40;;
69588;SDS011;56792;50.644;17.984;2023-01-29T11:07:27;12.80;;;9.60;;
69588;SDS011;56792;50.644;17.984;2023-01-29T11:10:04;11.00;;;8.80;;
69588;SDS011;56792;50.644;17.984;2023-01-29T11:12:43;10.60;;;8.50;;
69588;SDS011;56792;50.644;17.984;2023-01-29T11:15:21;10.70;;;8.20;;
69588;SDS011;56792;50.644;17.984;2023-01-29T11:18:06;11.20;;;8.50;;
69588;SDS011;56792;50.644;17.984;2023-01-29T11:20:44;9.90;;;7.90;;
69588;SDS011;56792;50.644;17.984;2023-01-29T11:23:32;10.20;;;7.60;;
69588;SDS011;56792;50.644;17.984;2023-01-29T11:26:06;10.30;;;8.00;;
69588;SDS011;56792;50.644;17.984;2023-01-29T11:28:42;9.70;;;7.50;;
69588;SDS011;56792;50.644;17.984;2023-01-29T11:31:24;10.50;;;7.30;;
69588;SDS011;56792;50.644;17.984;2023-01-29T11:34:04;9.60;;;7.20;;
69588;SDS011;56792;50.644;17.984;2023-01-29T11:36:47;9.90;;;6.80;;
69588;SDS011;56792;50.644;17.984;2023-01-29T11:39:29;10.00;;;7.00;;
69588;SDS011;56792;50.644;17.984;2023-01-29T11:42:04;9.30;;;6.80;;
69588;SDS011;56792;50.644;17.984;2023-01-29T11:44:55;10.10;;;6.70;;
69588;SDS011;56792;50.644;17.984;2023-01-29T11:47:29;9.30;;;6.40;;
69588;SDS011;56792;50.644;17.984;2023-01-29T11:50:03;9.60;;;6.70;;
69588;SDS011;56792;50.644;17.984;2023-01-29T11:52:38;9.10;;;6.00;;
69588;SDS011;56792;50.644;17.984;2023-01-29T11:55:18;9.10;;;6.40;;
69588;SDS011;56792;50.644;17.984;2023-01-29T11:57:57;9.20;;;6.10;;
69588;SDS011;56792;50.644;17.984;2023-01-29T12:00:36;8.70;;;6.00;;
69588;SDS011;56792;50.644;17.984;2023-01-29T12:03:18;9.60;;;6.30;;
69588;SDS011;56792;50.644;17.984;2023-01-29T12:06:01;8.80;;;6.10;;
69588;SDS011;56792;50.644;17.984;2023-01-29T12:08:38;9.50;;;6.10;;
69588;SDS011;56792;50.644;17.984;2023-01-29T12:11:13;10.00;;;6.30;;
69588;SDS011;56792;50.644;17.984;2023-01-29T12:13:57;8.60;;;5.90;;
69588;SDS011;56792;50.644;17.984;2023-01-29T12:16:34;10.60;;;6.10;;
69588;SDS011;56792;50.644;17.984;2023-01-29T12:19:19;9.50;;;6.00;;
69588;SDS011;56792;50.644;17.984;2023-01-29T12:22:01;9.60;;;6.60;;
69588;SDS011;56792;50.644;17.984;2023-01-29T12:24:47;9.50;;;6.10;;
69588;SDS011;56792;50.644;17.984;2023-01-29T12:27:28;9.30;;;5.80;;
69588;SDS011;56792;50.644;17.984;2023-01-29T12:30:14;8.40;;;5.70;;
69588;SDS011;56792;50.644;17.984;2023-01-29T12:33:05;9.00;;;6.30;;
69588;SDS011;56792;50.644;17.984;2023-01-29T12:35:47;9.70;;;6.80;;
69588;SDS011;56792;50.644;17.984;2023-01-29T12:38:27;9.40;;;6.10;;
69588;SDS011;56792;50.644;17.984;2023-01-29T12:41:06;8.10;;;5.80;;
69588;SDS011;56792;50.644;17.984;2023-01-29T12:43:54;10.30;;;6.40;;
69588;SDS011;56792;50.644;17.984;2023-01-29T12:46:36;9.50;;;6.10;;
69588;SDS011;56792;50.644;17.984;2023-01-29T12:49:17;9.20;;;5.90;;
69588;SDS011;56792;50.644;17.984;2023-01-29T12:51:57;8.30;;;5.10;;
69588;SDS011;56792;50.644;17.984;2023-01-29T12:54:42;9.10;;;5.50;;
69588;SDS011;56792;50.644;17.984;2023-01-29T12:57:24;8.20;;;5.30;;
69588;SDS011;56792;50.644;17.984;2023-01-29T13:00:08;9.90;;;5.50;;
69588;SDS011;56792;50.644;17.984;2023-01-29T13:02:52;9.20;;;6.20;;
69588;SDS011;56792;50.644;17.984;2023-01-29T13:05:33;10.10;;;6.40;;
69588;SDS011;56792;50.644;17.984;2023-01-29T13:08:16;10.90;;;6.30;;
69588;SDS011;56792;50.644;17.984;2023-01-29T13:10:55;10.10;;;6.60;;
69588;SDS011;56792;50.644;17.984;2023-01-29T13:13:35;10.20;;;6.70;;
69588;SDS011;56792;50.644;17.984;2023-01-29T13:16:22;10.30;;;6.40;;
69588;SDS011;56792;50.644;17.984;2023-01-29T13:19:02;11.80;;;7.10;;
69588;SDS011;56792;50.644;17.984;2023-01-29T13:21:45;10.90;;;7.20;;
69588;SDS011;56792;50.644;17.984;2023-01-29T13:24:22;10.10;;;6.50;;
69588;SDS011;56792;50.644;17.984;2023-01-29T13:26:57;9.40;;;6.40;;
69588;SDS011;56792;50.644;17.984;2023-01-29T13:29:31;10.30;;;6.80;;
69588;SDS011;56792;50.644;17.984;2023-01-29T13:32:05;9.70;;;6.50;;
69588;SDS011;56792;50.644;17.984;2023-01-29T13:34:45;9.30;;;6.10;;
69588;SDS011;56792;50.644;17.984;2023-01-29T13:37:26;9.50;;;6.70;;
69588;SDS011;56792;50.644;17.984;2023-01-29T13:40:04;10.60;;;7.20;;
69588;SDS011;56792;50.644;17.984;2023-01-29T13:42:49;11.00;;;6.50;;
69588;SDS011;56792;50.644;17.984;2023-01-29T13:45:26;10.30;;;6.40;;
69588;SDS011;56792;50.644;17.984;2023-01-29T13:48:18;9.90;;;6.50;;
69588;SDS011;56792;50.644;17.984;2023-01-29T13:50:58;9.70;;;6.20;;
69588;SDS011;56792;50.644;17.984;2023-01-29T13:53:36;10.10;;;6.30;;
69588;SDS011;56792;50.644;17.984;2023-01-29T13:56:42;10.10;;;7.00;;
69588;SDS011;56792;50.644;17.984;2023-01-29T13:59:53;10.10;;;6.20;;
69588;SDS011;56792;50.644;17.984;2023-01-29T14:02:28;10.00;;;6.30;;
69588;SDS011;56792;50.644;17.984;2023-01-29T14:08:38;9.00;;;6.00;;
69588;SDS011;56792;50.644;17.984;2023-01-29T14:11:35;8.10;;;5.80;;
69588;SDS011;56792;50.644;17.984;2023-01-29T14:17:29;9.20;;;5.70;;
69588;SDS011;56792;50.644;17.984;2023-01-29T14:20:17;8.70;;;5.80;;
69588;SDS011;56792;50.644;17.984;2023-01-29T14:22:57;9.10;;;6.10;;
69588;SDS011;56792;50.644;17.984;2023-01-29T14:25:34;8.20;;;5.40;;
69588;SDS011;56792;50.644;17.984;2023-01-29T14:28:22;8.30;;;5.40;;
69588;SDS011;56792;50.644;17.984;2023-01-29T14:30:58;7.60;;;4.80;;
69588;SDS011;56792;50.644;17.984;2023-01-29T14:33:35;10.00;;;5.90;;
69588;SDS011;56792;50.644;17.984;2023-01-29T14:36:14;9.00;;;5.50;;
69588;SDS011;56792;50.644;17.984;2023-01-29T14:38:51;8.50;;;5.20;;
69588;SDS011;56792;50.644;17.984;2023-01-29T14:41:32;9.00;;;5.70;;
69588;SDS011;56792;50.644;17.984;2023-01-29T14:47:58;8.30;;;5.20;;
69588;SDS011;56792;50.644;17.984;2023-01-29T14:50:52;8.80;;;5.50;;
69588;SDS011;56792;50.644;17.984;2023-01-29T14:53:52;10.30;;;5.80;;
69588;SDS011;56792;50.644;17.984;2023-01-29T14:56:34;10.30;;;5.60;;
69588;SDS011;56792;50.644;17.984;2023-01-29T14:59:18;8.70;;;5.80;;
69588;SDS011;56792;50.644;17.984;2023-01-29T15:01:56;8.10;;;5.70;;
69588;SDS011;56792;50.644;17.984;2023-01-29T15:04:36;9.30;;;5.50;;
69588;SDS011;56792;50.644;17.984;2023-01-29T15:07:25;10.10;;;5.80;;
69588;SDS011;56792;50.644;17.984;2023-01-29T15:10:15;9.60;;;6.10;;
69588;SDS011;56792;50.644;17.984;2023-01-29T15:12:54;9.80;;;5.80;;
69588;SDS011;56792;50.644;17.984;2023-01-29T15:15:35;10.10;;;5.70;;
69588;SDS011;56792;50.644;17.984;2023-01-29T15:18:18;9.70;;;5.90;;
69588;SDS011;56792;50.644;17.984;2023-01-29T15:21:09;8.40;;;5.70;;
69588;SDS011;56792;50.644;17.984;2023-01-29T15:24:05;10.30;;;6.30;;
69588;SDS011;56792;50.644;17.984;2023-01-29T15:26:44;10.90;;;6.20;;
69588;SDS011;56792;50.644;17.984;2023-01-29T15:29:24;10.90;;;7.00;;
69588;SDS011;56792;50.644;17.984;2023-01-29T15:32:01;12.10;;;7.20;;
69588;SDS011;56792;50.644;17.984;2023-01-29T15:34:36;12.50;;;7.30;;
69588;SDS011;56792;50.644;17.984;2023-01-29T15:37:28;15.10;;;8.40;;
69588;SDS011;56792;50.644;17.984;2023-01-29T15:40:03;14.30;;;8.80;;
69588;SDS011;56792;50.644;17.984;2023-01-29T15:42:46;16.10;;;9.20;;
69588;SDS011;56792;50.644;17.984;2023-01-29T15:45:28;18.00;;;11.10;;
69588;SDS011;56792;50.644;17.984;2023-01-29T15:48:06;17.60;;;10.10;;
69588;SDS011;56792;50.644;17.984;2023-01-29T15:50:47;16.80;;;10.50;;
69588;SDS011;56792;50.644;17.984;2023-01-29T15:53:29;18.40;;;11.50;;
69588;SDS011;56792;50.644;17.984;2023-01-29T15:56:08;18.30;;;11.20;;
69588;SDS011;56792;50.644;17.984;2023-01-29T15:58:48;17.70;;;11.70;;
69588;SDS011;56792;50.644;17.984;2023-01-29T16:01:24;18.60;;;11.40;;
69588;SDS011;56792;50.644;17.984;2023-01-29T16:04:00;18.90;;;10.80;;
69588;SDS011;56792;50.644;17.984;2023-01-29T16:06:43;17.70;;;10.70;;